Orpington, United Kingdom
Current Conditions -  °F | °C
As of 1:50 PM on Saturday 01 Nov 2014 (Local Time) from EGKB Reporting Station
Scattered Clouds Scattered Clouds  
Wind Chill: 61°   Ceiling: Unl
Heat Index: 61°   Visibility: 6mi
Dew Point: 45°   Wind: 13mph
Humidity: 55%   Direction: 220°SW
Pressure: 30"   Gusts: 24mph
Location:  51.37°N, 0.09°E
Report Text: EGKB 011350Z 22011G21KT 9999 SCT030 16/07 Q1016
Loading
Personal Weather Stations






























Interactive Weather Map
Tropical Storm Tracking
New forecast layout! Learn more

10-Day Weather Forecast

Advertisements
Track Severe Weather on mobile